createdAt,value
2018-12-26T00:01:10.447Z,96960.27
2018-12-26T00:04:00.980Z,96960.09
2018-12-26T00:06:44.511Z,96964.84
2018-12-26T00:09:35.001Z,96957.78
2018-12-26T00:12:18.057Z,96958.66
2018-12-26T00:15:01.234Z,96970.00
2018-12-26T00:17:51.855Z,96972.84
2018-12-26T00:20:35.146Z,96975.48
2018-12-26T00:23:25.698Z,96976.63
2018-12-26T00:26:09.060Z,96985.77
2018-12-26T00:32:22.217Z,96986.39
2018-12-26T00:35:05.854Z,96984.19
2018-12-26T00:37:48.907Z,96981.39
2018-12-26T00:43:59.924Z,96985.64
2018-12-26T00:46:42.845Z,96980.12
2018-12-26T00:49:26.354Z,96992.47
2018-12-26T00:52:17.149Z,96985.95
2018-12-26T00:55:00.400Z,96987.77
2018-12-26T00:57:51.803Z,96981.86
2018-12-26T01:00:34.586Z,96971.44
2018-12-26T01:06:47.841Z,96967.36
2018-12-26T01:09:31.313Z,96955.45
2018-12-26T01:12:14.613Z,96942.33
2018-12-26T01:15:05.329Z,96936.50
2018-12-26T01:17:46.871Z,96935.60
2018-12-26T01:20:37.408Z,96931.92
2018-12-26T01:23:20.229Z,96930.98
2018-12-26T01:26:18.944Z,96934.12
2018-12-26T01:29:04.835Z,96928.02
2018-12-26T01:31:55.371Z,96925.27
2018-12-26T01:34:38.685Z,96922.40
2018-12-26T01:37:29.211Z,96920.88
2018-12-26T01:40:12.676Z,96925.90
2018-12-26T01:43:03.225Z,96930.49
2018-12-26T01:45:46.703Z,96921.67
2018-12-26T01:52:04.373Z,96919.20
2018-12-26T01:54:47.141Z,96922.83
2018-12-26T01:57:30.549Z,96922.23
2018-12-26T02:00:13.901Z,96917.23
2018-12-26T02:03:04.473Z,96921.33
2018-12-26T02:05:48.043Z,96917.34
2018-12-26T02:08:38.617Z,96908.31
2018-12-26T02:11:21.483Z,96912.90
2018-12-26T02:14:12.044Z,96910.32
2018-12-26T02:16:55.448Z,96911.92
2018-12-26T02:19:45.997Z,96907.67
2018-12-26T02:22:29.217Z,96907.78
2018-12-26T02:25:19.745Z,96904.52
2018-12-26T02:28:02.899Z,96909.61
2018-12-26T02:30:53.467Z,96915.08
2018-12-26T02:33:34.976Z,96912.47
2018-12-26T02:36:25.543Z,96911.47
2018-12-26T02:39:08.737Z,96918.88
2018-12-26T02:41:59.305Z,96930.41
2018-12-26T02:44:42.883Z,96943.98
2018-12-26T02:47:33.434Z,96942.40
2018-12-26T02:50:16.910Z,96934.31
2018-12-26T02:52:59.717Z,96922.72
2018-12-26T02:55:50.334Z,96913.17
2018-12-26T02:58:33.829Z,96910.56
2018-12-26T03:01:16.819Z,96903.88
2018-12-26T03:04:07.377Z,96897.91
2018-12-26T03:06:50.329Z,96885.47
2018-12-26T03:09:40.901Z,96879.89
2018-12-26T03:12:24.373Z,96870.91
2018-12-26T03:15:15.832Z,96866.88
2018-12-26T03:17:58.478Z,96855.94
2018-12-26T03:20:49.045Z,96845.23
2018-12-26T03:23:32.243Z,96849.48
2018-12-26T03:26:22.809Z,96843.09
2018-12-26T03:29:05.697Z,96841.84
2018-12-26T03:31:56.345Z,96830.28
2018-12-26T03:34:41.531Z,96826.28
2018-12-26T03:37:32.083Z,96824.34
2018-12-26T03:40:15.013Z,96813.81
2018-12-26T03:43:05.565Z,96802.71
2018-12-26T03:45:48.863Z,96799.47
2018-12-26T03:48:39.529Z,96798.98
2018-12-26T03:51:22.973Z,96789.03
2018-12-26T03:54:05.925Z,96792.23
2018-12-26T03:57:05.595Z,96793.63
2018-12-26T03:59:46.842Z,96790.97
2018-12-26T04:02:37.369Z,96788.78
2018-12-26T04:05:20.478Z,96776.83
2018-12-26T04:08:10.923Z,96773.48
2018-12-26T04:10:54.123Z,96776.57
2018-12-26T04:13:44.659Z,96778.83
2018-12-26T04:16:28.230Z,96765.72
2018-12-26T04:19:18.701Z,96777.31
2018-12-26T04:22:01.594Z,96776.08
2018-12-26T04:24:52.224Z,96780.69
2018-12-26T04:27:35.716Z,96772.73
2018-12-26T04:30:26.250Z,96782.74
2018-12-26T04:33:09.480Z,96775.84
2018-12-26T04:36:00.000Z,96775.72
2018-12-26T04:38:43.406Z,96779.75
2018-12-26T04:41:33.952Z,96776.48
2018-12-26T04:44:17.502Z,96772.13
2018-12-26T04:47:08.050Z,96772.31
2018-12-26T04:49:51.434Z,96769.83
2018-12-26T04:52:41.972Z,96764.47
2018-12-26T04:55:25.377Z,96754.91
2018-12-26T04:58:15.911Z,96756.31
2018-12-26T05:00:58.643Z,96761.10
2018-12-26T05:03:49.178Z,96758.86
2018-12-26T05:06:32.596Z,96753.17
2018-12-26T05:09:23.076Z,96761.69
2018-12-26T05:12:07.839Z,96766.94
2018-12-26T05:14:58.392Z,96764.90
2018-12-26T05:17:41.764Z,96775.44
2018-12-26T05:20:32.290Z,96790.95
2018-12-26T05:23:13.864Z,96792.56
2018-12-26T05:26:04.376Z,96792.29
2018-12-26T05:28:46.017Z,96791.70
2018-12-26T05:31:36.562Z,96785.70
2018-12-26T05:34:20.118Z,96769.28
2018-12-26T05:37:10.687Z,96769.03
2018-12-26T05:39:54.234Z,96760.13
2018-12-26T05:42:44.739Z,96763.88
2018-12-26T05:45:28.066Z,96760.18
2018-12-26T05:48:18.604Z,96765.61
2018-12-26T05:51:01.927Z,96767.96
2018-12-26T05:53:52.475Z,96770.19
2018-12-26T05:56:35.424Z,96777.06
2018-12-26T05:59:25.954Z,96781.92
2018-12-26T06:02:09.376Z,96786.81
2018-12-26T06:04:59.908Z,96786.06
2018-12-26T06:07:43.155Z,96803.30
2018-12-26T06:10:33.696Z,96798.09
2018-12-26T06:13:16.949Z,96799.84
2018-12-26T06:16:07.502Z,96800.33
2018-12-26T06:18:48.906Z,96795.29
2018-12-26T06:21:39.462Z,96805.73
2018-12-26T06:24:22.616Z,96795.26
2018-12-26T06:27:13.070Z,96805.50
2018-12-26T06:29:56.274Z,96808.94
2018-12-26T06:32:46.759Z,96809.39
2018-12-26T06:35:29.745Z,96813.94
2018-12-26T06:38:20.291Z,96804.06
2018-12-26T06:41:03.686Z,96811.55
2018-12-26T06:43:54.204Z,96804.39
2018-12-26T06:46:37.393Z,96803.31
2018-12-26T06:49:27.924Z,96791.48
2018-12-26T06:52:11.433Z,96791.95
2018-12-26T06:55:01.960Z,96792.41
2018-12-26T06:57:45.376Z,96789.01
2018-12-26T07:00:28.436Z,96797.91
2018-12-26T07:03:11.890Z,96797.87
2018-12-26T07:06:02.423Z,96799.96
2018-12-26T07:08:45.764Z,96810.59
2018-12-26T07:11:36.296Z,96804.67
2018-12-26T07:14:19.758Z,96815.82
2018-12-26T07:17:10.284Z,96827.73
2018-12-26T07:19:53.802Z,96822.45
2018-12-26T07:22:44.266Z,96807.74
2018-12-26T07:25:27.562Z,96824.52
2018-12-26T07:28:18.072Z,96829.00
2018-12-26T07:31:01.432Z,96816.91
2018-12-26T07:33:51.965Z,96821.69
2018-12-26T07:36:35.452Z,96819.97
2018-12-26T07:39:25.990Z,96816.99
2018-12-26T07:42:09.324Z,96824.83
2018-12-26T07:45:00.028Z,96831.92
2018-12-26T07:47:43.385Z,96822.09
2018-12-26T07:50:33.927Z,96827.61
2018-12-26T07:53:15.483Z,96837.70
2018-12-26T07:56:06.034Z,96834.26
2018-12-26T07:58:49.443Z,96840.17
2018-12-26T08:01:32.435Z,96825.30
2018-12-26T08:04:13.986Z,96833.83
2018-12-26T08:07:04.514Z,96834.66
2018-12-26T08:09:47.881Z,96825.45
2018-12-26T08:12:38.440Z,96836.06
2018-12-26T08:15:22.802Z,96836.77
2018-12-26T08:18:13.375Z,96836.41
2018-12-26T08:20:56.585Z,96826.61
2018-12-26T08:23:47.147Z,96819.20
2018-12-26T08:26:30.285Z,96820.74
2018-12-26T08:32:40.712Z,96828.37
2018-12-26T08:35:24.146Z,96830.23
2018-12-26T08:38:07.185Z,96843.77
2018-12-26T08:40:49.907Z,96843.23
2018-12-26T08:43:33.331Z,96841.87
2018-12-26T08:46:23.848Z,96850.38
2018-12-26T08:49:06.607Z,96838.91
2018-12-26T08:55:19.715Z,96858.45
2018-12-26T08:58:02.853Z,96856.53
2018-12-26T09:00:45.900Z,96863.14
2018-12-26T09:03:36.420Z,96858.67
2018-12-26T09:06:17.983Z,96858.23
2018-12-26T09:09:08.489Z,96853.84
2018-12-26T09:11:52.132Z,96824.92
2018-12-26T09:14:42.637Z,96839.30
2018-12-26T09:17:24.220Z,96834.03
2018-12-26T09:23:37.256Z,96816.05
2018-12-26T09:26:20.013Z,96820.33
2018-12-26T09:29:10.510Z,96819.88
2018-12-26T09:31:53.880Z,96804.56
2018-12-26T09:34:44.416Z,96801.95
2018-12-26T09:37:27.474Z,96810.02
2018-12-26T09:46:21.966Z,96807.96
2018-12-26T09:49:05.477Z,96814.20
2018-12-26T09:54:58.246Z,96816.92
2018-12-26T09:57:41.399Z,96815.30
2018-12-26T10:00:24.298Z,96812.48
2018-12-26T10:03:07.162Z,96800.11
2018-12-26T10:05:57.700Z,96811.84
2018-12-26T10:08:39.222Z,96807.80
2018-12-26T10:14:52.508Z,96795.44
2018-12-26T10:17:35.417Z,96779.23
2018-12-26T10:20:18.441Z,96784.26
2018-12-26T10:26:28.710Z,96792.31
2018-12-26T10:29:12.299Z,96784.83
2018-12-26T10:32:02.913Z,96780.28
2018-12-26T10:34:44.399Z,96767.09
2018-12-26T10:37:34.979Z,96769.31
2018-12-26T10:40:17.834Z,96760.42
2018-12-26T10:43:08.386Z,96758.84
2018-12-26T10:45:51.760Z,96753.81
2018-12-26T10:48:42.335Z,96739.20
2018-12-26T10:51:27.366Z,96745.23
2018-12-26T10:54:17.931Z,96740.14
2018-12-26T10:57:00.803Z,96743.94
2018-12-26T10:59:51.312Z,96741.11
2018-12-26T11:02:34.556Z,96741.91
2018-12-26T11:05:17.540Z,96745.70
2018-12-26T11:08:08.121Z,96741.87
2018-12-26T11:10:50.855Z,96749.34
2018-12-26T11:13:41.476Z,96744.06
2018-12-26T11:16:24.598Z,96745.59
2018-12-26T11:19:15.146Z,96737.13
2018-12-26T11:21:59.964Z,96733.10
2018-12-26T11:24:50.554Z,96733.33
2018-12-26T11:27:32.239Z,96727.64
2018-12-26T11:33:42.669Z,96721.09
2018-12-26T11:36:25.600Z,96717.71
2018-12-26T11:39:09.159Z,96725.49
2018-12-26T11:41:59.733Z,96720.68
2018-12-26T11:44:42.403Z,96722.73
2018-12-26T11:47:32.939Z,96727.34
2018-12-26T11:50:15.709Z,96730.95
2018-12-26T11:56:29.108Z,96741.17
2018-12-26T11:59:11.877Z,96750.72
2018-12-26T12:01:55.182Z,96747.13
2018-12-26T12:04:45.784Z,96750.98
2018-12-26T12:07:29.288Z,96758.58
2018-12-26T12:13:40.277Z,96756.97
2018-12-26T12:16:23.608Z,96764.38
2018-12-26T12:19:06.857Z,96761.59
2018-12-26T12:21:57.391Z,96757.95
2018-12-26T12:24:40.534Z,96759.16
2018-12-26T12:30:53.902Z,96759.79
2018-12-26T12:33:37.005Z,96760.56
2018-12-26T12:36:18.644Z,96753.91
2018-12-26T12:39:09.219Z,96751.67
2018-12-26T12:41:52.046Z,96751.92
2018-12-26T12:48:10.543Z,96747.53
2018-12-26T12:50:53.913Z,96748.95
2018-12-26T12:53:37.116Z,96747.42
2018-12-26T13:02:49.045Z,96746.52
2018-12-26T13:05:32.305Z,96744.34
2018-12-26T13:08:23.820Z,96747.84
2018-12-26T13:11:06.903Z,96749.62
2018-12-26T13:13:57.558Z,96758.84
2018-12-26T13:16:41.008Z,96764.51
2018-12-26T13:19:31.708Z,96766.80
2018-12-26T13:22:15.168Z,96764.55
2018-12-26T13:25:05.990Z,96762.56
2018-12-26T13:27:49.205Z,96767.75
2018-12-26T13:33:41.853Z,96769.66
2018-12-26T13:36:32.390Z,96768.73
2018-12-26T13:39:15.819Z,96773.94
2018-12-26T13:42:06.387Z,96780.27
2018-12-26T13:44:49.656Z,96781.69
2018-12-26T13:51:05.185Z,96780.04
2018-12-26T13:53:46.746Z,96788.47
2018-12-26T13:56:28.267Z,96787.52
2018-12-26T14:02:31.881Z,96784.91
2018-12-26T14:05:14.847Z,96773.66
2018-12-26T14:07:56.377Z,96795.41
2018-12-26T14:10:46.926Z,96789.42
2018-12-26T14:13:31.659Z,96794.65
2018-12-26T14:44:01.926Z,96793.68
2018-12-26T14:46:44.678Z,96794.06
2018-12-26T14:49:35.236Z,96789.67
2018-12-26T14:52:18.649Z,96779.73
2018-12-26T15:01:04.831Z,96799.14
2018-12-26T15:03:47.791Z,96790.48
2018-12-26T15:06:29.298Z,96790.09
2018-12-26T15:12:23.064Z,96784.16
2018-12-26T15:15:13.608Z,96775.68
2018-12-26T15:17:57.222Z,96768.68
2018-12-26T15:24:14.706Z,96760.61
2018-12-26T15:26:57.592Z,96760.91
2018-12-26T15:29:41.117Z,96755.63
2018-12-26T15:38:54.185Z,96765.89
2018-12-26T15:41:37.383Z,96775.72
2018-12-26T15:50:32.034Z,96774.84
2018-12-26T15:53:16.478Z,96779.65
2018-12-26T16:02:03.884Z,96791.81
2018-12-26T16:04:47.056Z,96796.54
2018-12-26T16:07:29.955Z,96801.97
2018-12-26T16:13:40.590Z,96802.95
2018-12-26T16:16:24.225Z,96790.78
2018-12-26T16:19:14.758Z,96790.70
2018-12-26T16:22:16.858Z,96801.34
2018-12-26T16:25:07.996Z,96800.69
2018-12-26T16:27:39.412Z,96799.38
2018-12-26T16:30:11.171Z,96805.48
2018-12-26T16:32:42.697Z,96808.34
2018-12-26T16:35:14.199Z,96808.08
2018-12-26T16:37:45.596Z,96811.84
2018-12-26T16:40:17.088Z,96810.90
2018-12-26T16:42:48.516Z,96817.11
2018-12-26T16:45:20.937Z,96809.23
2018-12-26T16:47:52.419Z,96801.51
2018-12-26T16:50:27.186Z,96798.30
2018-12-26T16:52:57.147Z,96805.86
2018-12-26T16:55:47.834Z,96801.70
2018-12-26T16:58:31.062Z,96792.25
2018-12-26T17:01:14.527Z,96796.78
2018-12-26T17:03:57.679Z,96790.70
2018-12-26T17:06:41.113Z,96788.27
2018-12-26T17:09:31.631Z,96793.11
2018-12-26T17:12:14.808Z,96799.05
2018-12-26T17:15:05.465Z,96796.48
2018-12-26T17:17:49.055Z,96795.39
2018-12-26T17:20:39.591Z,96800.81
2018-12-26T17:23:22.930Z,96800.80
2018-12-26T17:35:37.435Z,96792.11
2018-12-26T17:38:20.545Z,96794.99
2018-12-26T17:41:11.164Z,96796.63
2018-12-26T17:43:54.561Z,96796.48
2018-12-26T17:46:45.308Z,96796.59
2018-12-26T17:49:29.033Z,96791.47
2018-12-26T17:56:03.214Z,96790.47
2018-12-26T17:58:53.942Z,96803.44
2018-12-26T18:04:49.300Z,96812.41
2018-12-26T18:07:32.760Z,96813.37
2018-12-26T18:10:15.753Z,96815.64
2018-12-26T18:13:06.354Z,96810.90
2018-12-26T18:15:49.362Z,96804.80
2018-12-26T18:22:02.547Z,96796.34
2018-12-26T18:24:46.100Z,96793.39
2018-12-26T18:27:36.717Z,96795.17
2018-12-26T18:30:21.271Z,96790.16
2018-12-26T18:39:17.322Z,96795.07
2018-12-26T18:41:58.991Z,96804.88
2018-12-26T18:50:53.033Z,96789.58
2018-12-26T18:53:36.270Z,96788.29
2018-12-26T19:02:22.524Z,96779.47
2018-12-26T19:05:06.524Z,96790.03
2018-12-26T19:07:49.931Z,96786.08
2018-12-26T19:14:03.264Z,96788.35
2018-12-26T19:16:44.913Z,96788.66
2018-12-26T19:19:27.883Z,96779.04
2018-12-26T19:22:11.426Z,96798.14
2018-12-26T19:24:53.099Z,96785.98
2018-12-26T19:31:03.547Z,96792.55
2018-12-26T19:33:46.825Z,96793.63
2018-12-26T19:36:30.408Z,96788.00
2018-12-26T19:42:41.414Z,96795.59
2018-12-26T19:45:24.774Z,96788.38
2018-12-26T19:48:07.678Z,96793.55
2018-12-26T19:54:18.116Z,96800.84
2018-12-26T19:57:01.287Z,96798.33
2018-12-26T19:59:44.849Z,96797.03
2018-12-26T20:09:16.989Z,96782.52
2018-12-26T20:12:02.125Z,96786.42
2018-12-26T20:20:56.263Z,96794.81
2018-12-26T20:23:39.716Z,96791.12
2018-12-26T20:29:55.442Z,96789.38
2018-12-26T20:32:38.518Z,96784.95
2018-12-26T20:35:21.773Z,96786.84
2018-12-26T20:41:32.469Z,96787.88
2018-12-26T20:44:16.037Z,96774.89
2018-12-26T20:46:59.160Z,96785.97
2018-12-26T21:02:07.880Z,96786.05
2018-12-26T21:04:51.227Z,96780.13
2018-12-26T21:11:02.246Z,96779.59
2018-12-26T21:13:45.892Z,96780.84
2018-12-26T21:19:37.935Z,96778.11
2018-12-26T21:22:21.323Z,96770.30
2018-12-26T21:25:11.879Z,96768.16
2018-12-26T21:27:55.443Z,96770.94
2018-12-26T21:31:05.200Z,96775.02
2018-12-26T21:33:49.878Z,96767.45
2018-12-26T21:40:07.902Z,96769.08
2018-12-26T21:42:50.957Z,96765.57
2018-12-26T21:45:32.560Z,96768.45
2018-12-26T21:48:23.108Z,96760.08
2018-12-26T21:51:06.459Z,96763.07
2018-12-26T21:53:57.025Z,96758.15
2018-12-26T21:56:40.474Z,96752.70
2018-12-26T21:59:31.067Z,96758.77
2018-12-26T22:02:22.370Z,96759.02
2018-12-26T22:08:34.828Z,96765.33
2018-12-26T22:11:16.386Z,96774.97
2018-12-26T22:14:00.000Z,96781.62
2018-12-26T22:20:10.861Z,96774.44
2018-12-26T22:22:53.849Z,96771.58
2018-12-26T22:25:37.359Z,96772.73
2018-12-26T22:31:48.482Z,96772.32
2018-12-26T22:34:31.608Z,96761.16
2018-12-26T22:37:15.066Z,96767.52
2018-12-26T22:43:25.906Z,96753.13
2018-12-26T22:46:09.103Z,96754.56
2018-12-26T22:48:52.356Z,96746.98
2018-12-26T22:55:02.775Z,96739.06
2018-12-26T22:57:45.742Z,96745.13
2018-12-26T23:03:56.218Z,96735.42
2018-12-26T23:06:39.610Z,96738.55
2018-12-26T23:12:52.753Z,96724.84
2018-12-26T23:15:35.812Z,96724.78
2018-12-26T23:18:19.141Z,96724.08
2018-12-26T23:24:29.890Z,96716.56
2018-12-26T23:27:13.357Z,96719.14
2018-12-26T23:33:05.572Z,96710.90
2018-12-26T23:35:49.118Z,96705.48
2018-12-26T23:42:05.800Z,96699.61
2018-12-26T23:44:47.299Z,96695.45
2018-12-26T23:47:28.950Z,96691.88
2018-12-26T23:53:39.976Z,96682.02
2018-12-26T23:56:22.700Z,96682.02
2018-12-26T23:59:06.034Z,96676.02
